createdAt,value
2022-12-19T00:09:09.618Z,34.13
2022-12-19T00:19:11.620Z,35.77
2022-12-19T00:29:14.514Z,37.23
2022-12-19T00:39:16.442Z,35.40
2022-12-19T00:49:21.153Z,35.53
2022-12-19T00:59:26.411Z,38.13
2022-12-19T01:09:28.050Z,39.50
2022-12-19T01:19:29.863Z,38.53
2022-12-19T01:29:32.614Z,38.83
2022-12-19T01:39:36.079Z,38.27
2022-12-19T01:49:38.773Z,39.53
2022-12-19T01:59:52.250Z,39.17
2022-12-19T02:09:57.547Z,42.37
2022-12-19T02:20:43.229Z,40.67
2022-12-19T02:30:54.745Z,39.17
2022-12-19T02:41:06.339Z,40.87
2022-12-19T02:51:09.255Z,38.40
2022-12-19T03:01:31.792Z,40.40
2022-12-19T03:11:36.443Z,39.03
2022-12-19T03:21:43.145Z,39.37
2022-12-19T03:31:46.535Z,37.27
2022-12-19T03:42:08.036Z,40.03
2022-12-19T03:52:28.441Z,40.67
2022-12-19T04:02:34.103Z,39.87
2022-12-19T04:12:41.229Z,39.80
2022-12-19T04:22:46.943Z,38.92
2022-12-19T04:32:50.326Z,40.20
2022-12-19T04:42:51.779Z,38.03
2022-12-19T04:52:56.968Z,38.97
2022-12-19T05:02:59.084Z,37.90
2022-12-19T05:13:00.776Z,37.47
2022-12-19T05:23:05.780Z,38.90
2022-12-19T05:33:09.567Z,40.33
2022-12-19T05:43:11.067Z,39.20
2022-12-19T05:53:12.506Z,38.03
2022-12-19T06:03:14.383Z,39.40
2022-12-19T06:13:17.033Z,38.20
2022-12-19T06:23:21.162Z,36.57
2022-12-19T06:33:23.057Z,36.33
2022-12-19T06:43:26.386Z,36.30
2022-12-19T06:53:28.057Z,36.93
2022-12-19T07:03:36.122Z,36.63
2022-12-19T07:13:40.189Z,35.47
2022-12-19T07:23:41.801Z,35.93
2022-12-19T07:33:44.018Z,36.37
2022-12-19T07:43:48.561Z,36.80
2022-12-19T07:53:50.020Z,35.20
2022-12-19T08:03:55.791Z,36.33
2022-12-19T08:13:57.837Z,33.73
2022-12-19T08:24:00.126Z,36.67
2022-12-19T08:34:01.850Z,33.77
2022-12-19T08:44:03.816Z,31.90
2022-12-19T08:54:07.910Z,34.50
2022-12-19T09:05:57.342Z,33.13
2022-12-19T09:14:35.253Z,33.00
2022-12-19T09:24:36.869Z,33.83
2022-12-19T09:34:39.122Z,32.63
2022-12-19T09:45:11.220Z,31.67
2022-12-19T09:55:33.768Z,35.70
2022-12-19T10:07:01.757Z,33.87
2022-12-19T10:17:22.177Z,32.13
2022-12-19T10:27:58.818Z,33.73
2022-12-19T10:38:24.317Z,33.43
2022-12-19T10:48:30.727Z,35.07
2022-12-19T10:58:36.193Z,33.27
2022-12-19T11:08:37.691Z,32.30
2022-12-19T11:29:16.169Z,34.83
2022-12-19T11:40:13.546Z,34.53
2022-12-19T11:50:22.868Z,33.83
2022-12-19T12:00:24.826Z,34.10
2022-12-19T12:16:58.640Z,34.33
2022-12-19T12:31:05.950Z,32.97
2022-12-19T12:35:46.912Z,35.30
2022-12-19T12:42:43.195Z,36.53
2022-12-19T12:53:07.080Z,34.87
2022-12-19T13:03:19.270Z,36.03
2022-12-19T13:13:51.896Z,35.60
2022-12-19T13:24:16.471Z,29.00
2022-12-19T13:34:19.243Z,28.57
2022-12-19T13:44:22.192Z,29.80
2022-12-19T13:54:28.476Z,29.30
2022-12-19T14:04:33.778Z,29.87
2022-12-19T14:15:12.915Z,30.43
2022-12-19T14:28:14.382Z,30.63
2022-12-19T14:36:09.090Z,31.93
2022-12-19T14:51:09.061Z,32.53
2022-12-19T14:57:02.804Z,31.47
2022-12-19T15:07:19.890Z,29.33
2022-12-19T15:17:24.312Z,30.97
2022-12-19T15:27:25.953Z,30.50
2022-12-19T15:37:27.386Z,30.77
2022-12-19T15:47:32.642Z,30.63
2022-12-19T15:57:38.444Z,30.63
2022-12-19T16:07:39.906Z,31.17
2022-12-19T16:17:41.536Z,30.17
2022-12-19T16:27:43.947Z,32.73
2022-12-19T16:37:45.547Z,32.57
2022-12-19T16:47:47.655Z,34.30
2022-12-19T16:57:50.839Z,31.07
2022-12-19T17:07:53.144Z,31.57
2022-12-19T17:17:56.893Z,32.67
2022-12-19T17:27:58.361Z,31.57
2022-12-19T17:37:59.855Z,31.73
2022-12-19T17:48:07.830Z,36.70
2022-12-19T17:58:12.426Z,34.80
2022-12-19T18:08:27.882Z,33.30
2022-12-19T18:18:35.250Z,35.13
2022-12-19T18:28:36.755Z,32.03
2022-12-19T18:38:38.263Z,33.70
2022-12-19T18:48:39.866Z,35.97
2022-12-19T18:58:41.480Z,33.37
2022-12-19T19:08:42.981Z,35.23
2022-12-19T19:19:06.982Z,35.83
2022-12-19T19:29:08.458Z,39.00
2022-12-19T19:39:10.813Z,34.83
2022-12-19T19:49:12.301Z,36.43
2022-12-19T19:59:16.619Z,35.23
2022-12-19T20:09:18.230Z,33.83
2022-12-19T20:19:19.662Z,34.97
2022-12-19T20:29:21.392Z,33.30
2022-12-19T20:39:22.902Z,34.77
2022-12-19T20:49:24.398Z,33.53
2022-12-19T20:59:26.022Z,31.80
2022-12-19T21:09:27.513Z,33.37
2022-12-19T21:19:28.992Z,31.13
2022-12-19T21:29:30.627Z,32.27
2022-12-19T21:39:32.117Z,32.63
2022-12-19T21:49:33.586Z,31.87
2022-12-19T21:59:35.061Z,31.90
2022-12-19T22:09:36.531Z,32.33
2022-12-19T22:19:37.989Z,31.47
2022-12-19T22:29:39.600Z,32.63
2022-12-19T22:39:41.058Z,32.80
2022-12-19T22:49:42.565Z,31.50
2022-12-19T22:59:44.034Z,31.90
2022-12-19T23:09:45.492Z,31.57
2022-12-19T23:19:47.022Z,32.63
2022-12-19T23:29:49.631Z,32.00
2022-12-19T23:39:51.802Z,32.70
2022-12-19T23:49:53.318Z,32.50
2022-12-19T23:59:56.249Z,34.53
